Cap Aiguades — FMII — position and weather

sailwx.info

Track history (hours):
 
Tides and Currents Weather Stations Pressure Air Temp Water Temp Dewpoint Dewpoint Depression Visibility Wind Speed Wind Dir Waves Ship Positions

Cap Aiguades

Last reported at 2016-Aug-28 21:33 UTC. Time now 2016-Aug-28 22:23 UTC.
Position N 43°24' E 004°59'.

Length 89 m; draft 3.4 m.

Type: Ship. MMSI: 228237800.

Date/timePositionNaut miles runAvg speedWind from/ knotsBaromVisibWave heightAir tempDewpointWater temp
2016-Aug-28 21:33N 43°24' E 004°59'0 0.0
2016-Aug-28 20:33N 43°24' E 004°59'0 0.0
2016-Aug-28 19:33N 43°24' E 004°59'0 0.0
2016-Aug-28 18:33N 43°24' E 004°59'0 0.0
2016-Aug-28 17:33N 43°24' E 004°59'0 0.0
2016-Aug-28 16:33N 43°24' E 004°59'0 0.0
2016-Aug-28 15:33N 43°24' E 004°59'0 0.0
2016-Aug-28 14:33N 43°24' E 004°59'0 0.0
2016-Aug-28 13:33N 43°24' E 004°59'0 0.0
2016-Aug-28 12:33N 43°24' E 004°59'0 0.0
2016-Aug-28 11:34N 43°24' E 004°59'0 0.0
2016-Aug-28 05:33N 43°24' E 004°59'0 0.0
2016-Aug-28 04:33N 43°24' E 004°59'0 0.0
2016-Aug-28 03:33N 43°24' E 004°59'0 0.0
2016-Aug-28 02:33N 43°24' E 004°59'0 0.0
2016-Aug-28 01:33N 43°24' E 004°59'0 0.0
2016-Aug-28 00:33N 43°24' E 004°59'0 0.0
2016-Aug-27 23:33N 43°24' E 004°59'0 0.0
2016-Aug-27 22:33N 43°24' E 004°59'0 0.0
2016-Aug-27 21:33N 43°24' E 004°59'0 0.0
2016-Aug-27 20:34N 43°24' E 004°59'0 0.0
2016-Aug-27 19:33N 43°24' E 004°59'0 0.0
2016-Aug-27 18:33N 43°24' E 004°59'0 0.0
2016-Aug-27 17:33N 43°24' E 004°59'0 0.0
2016-Aug-27 16:33N 43°24' E 004°59'0 0.1
2016-Aug-27 15:33N 43°24' E 004°59'0 0.5
2016-Aug-27 14:34N 43°24' E 004°59'0 0.0
2016-Aug-27 13:33N 43°24' E 004°59'0 0.0
2016-Aug-27 12:33N 43°24' E 004°59'0 0.0
2016-Aug-27 11:33N 43°24' E 004°59'0 0.0
2016-Aug-27 10:33N 43°24' E 004°59'1 0.6
2016-Aug-27 09:33N 43°24' E 004°59'0 0.0
2016-Aug-27 08:33N 43°24' E 004°59'0 0.0
2016-Aug-27 07:33N 43°24' E 004°59'0 0.0
2016-Aug-27 06:33N 43°24' E 004°59'0 0.0
2016-Aug-27 04:33N 43°24' E 004°59'0 0.0
2016-Aug-27 03:33N 43°24' E 004°59'0 0.0
2016-Aug-27 02:33N 43°24' E 004°59'0 0.0
2016-Aug-27 01:33N 43°24' E 004°59'0 0.0
2016-Aug-27 00:33N 43°24' E 004°59'0 0.0
2016-Aug-26 23:33N 43°24' E 004°59'0 0.0
2016-Aug-26 22:33N 43°24' E 004°59'0 0.0
2016-Aug-26 21:33N 43°24' E 004°59'0 0.0
2016-Aug-26 20:33N 43°24' E 004°59'0 0.0
2016-Aug-26 19:33N 43°24' E 004°59'0 0.0
2016-Aug-26 18:33N 43°24' E 004°59'0 0.0
2016-Aug-26 17:33N 43°24' E 004°59'0 0.0
2016-Aug-26 16:33N 43°24' E 004°59'0 0.0
2016-Aug-26 15:33N 43°24' E 004°59'0 0.0
2016-Aug-26 14:33N 43°24' E 004°59'2 1.8
2016-Aug-26 13:33N 43°23' E 004°57'0 0.0
2016-Aug-26 03:11N 43°23' E 004°57'2 2.7
2016-Aug-26 02:33N 43°24' E 004°59'0 0.0
2016-Aug-26 01:33N 43°24' E 004°59'0 0.0
2016-Aug-26 00:33N 43°24' E 004°59'0 0.0
2016-Aug-25 23:34N 43°24' E 004°59'0 0.0
2016-Aug-25 22:33N 43°24' E 004°59'0 0.0
2016-Aug-25 21:33N 43°24' E 004°59'0 0.0
2016-Aug-25 20:34N 43°24' E 004°59'0 0.0
2016-Aug-25 19:33N 43°24' E 004°59'0 0.0
2016-Aug-25 18:33N 43°24' E 004°59'0 0.0
2016-Aug-25 17:33N 43°24' E 004°59'0 0.0
2016-Aug-25 16:33N 43°24' E 004°59'0 0.0
2016-Aug-25 15:33N 43°24' E 004°59'0 0.0
2016-Aug-25 14:33N 43°24' E 004°59'0 0.2
2016-Aug-25 13:34N 43°24' E 004°59'6 4.3
2016-Aug-25 12:06N 43°25' E 004°51'0 0.3
2016-Aug-25 11:33N 43°25' E 004°51'0 0.0
2016-Aug-25 07:21N 43°25' E 004°51'5 1.6
2016-Aug-25 04:25N 43°23' E 004°57'2 2.0
2016-Aug-25 03:33N 43°24' E 004°59'0 0.0
2016-Aug-25 02:33N 43°24' E 004°59'0 0.0
2016-Aug-25 01:33N 43°24' E 004°59'0 0.0
2016-Aug-25 00:33N 43°24' E 004°59'0 0.0
2016-Aug-24 23:34N 43°24' E 004°59'0 0.0
2016-Aug-24 22:33N 43°24' E 004°59'0 0.0
2016-Aug-24 21:33N 43°24' E 004°59'0 0.0
2016-Aug-24 20:33N 43°24' E 004°59'0 0.0
2016-Aug-24 19:33N 43°24' E 004°59'0 0.0
2016-Aug-24 18:34N 43°24' E 004°59'0 0.2
2016-Aug-24 17:33N 43°24' E 004°59'44 7.0
2016-Aug-24 11:11N 43°06' E 005°55'1 0.1
2016-Aug-24 04:33N 43°06' E 005°54'0 0.0
2016-Aug-24 03:34N 43°06' E 005°54'0 0.0
2016-Aug-24 02:34N 43°06' E 005°54'0 0.0
2016-Aug-24 01:34N 43°06' E 005°54'0 0.0
2016-Aug-24 00:33N 43°06' E 005°54'1 0.1
2016-Aug-23 16:25N 43°07' E 005°55'1 0.6
2016-Aug-23 15:33N 43°06' E 005°54'0 0.0
2016-Aug-23 14:33N 43°06' E 005°54'0 0.0
2016-Aug-23 13:33N 43°06' E 005°54'0 0.0
2016-Aug-23 12:33N 43°06' E 005°54'0 0.0
2016-Aug-23 11:34N 43°06' E 005°54'0 0.0
2016-Aug-23 10:34N 43°06' E 005°54'0 0.0
2016-Aug-23 09:33N 43°06' E 005°54'0 0.0
2016-Aug-23 08:33N 43°06' E 005°54'0 0.0
2016-Aug-23 07:34N 43°06' E 005°54'23 3.2
2016-Aug-23 00:30N 43°02' E 005°23'24 1.9
2016-Aug-22 11:22N 43°19' E 005°00'4 5.2
2016-Aug-22 10:34N 43°24' E 004°59'0 0.0
2016-Aug-22 09:33N 43°24' E 004°59'0 0.0
2016-Aug-22 08:33N 43°24' E 004°59'0 0.0
2016-Aug-22 07:33N 43°24' E 004°59'0 0.0
2016-Aug-22 06:33N 43°24' E 004°59'0 0.0
2016-Aug-22 05:33N 43°24' E 004°59'0 0.0
2016-Aug-22 04:34N 43°24' E 004°59'0 0.0
2016-Aug-22 03:33N 43°24' E 004°59'0 0.0
2016-Aug-22 02:33N 43°24' E 004°59'0 0.0
2016-Aug-22 01:33N 43°24' E 004°59'0 0.0
2016-Aug-22 00:33N 43°24' E 004°59'0 0.0
2016-Aug-21 23:33N 43°24' E 004°59'2 2.2
2016-Aug-21 22:33N 43°24' E 004°56'1 0.1
2016-Aug-21 17:06N 43°24' E 004°55'3 5.3
2016-Aug-21 16:33N 43°24' E 004°59'0 0.0
2016-Aug-21 15:34N 43°24' E 004°59'0 0.0
2016-Aug-21 14:34N 43°24' E 004°59'0 0.0
2016-Aug-21 13:33N 43°24' E 004°59'0 0.0
2016-Aug-21 12:33N 43°24' E 004°59'0 0.0
2016-Aug-21 11:34N 43°24' E 004°59'0 0.0
2016-Aug-21 10:33N 43°24' E 004°59'0 0.0
2016-Aug-21 09:34N 43°24' E 004°59'0 0.0
2016-Aug-21 08:34N 43°24' E 004°59'0 0.0
2016-Aug-21 07:33N 43°24' E 004°59'0 0.0
2016-Aug-21 06:33N 43°24' E 004°59'0 0.0
2016-Aug-21 05:34N 43°24' E 004°59'1 0.5
2016-Aug-21 04:33N 43°24' E 004°59'0 0.0
2016-Aug-21 03:33N 43°24' E 004°59'0 0.0
2016-Aug-21 02:33N 43°24' E 004°59'0 0.0
2016-Aug-21 01:33N 43°24' E 004°59'0 0.0
2016-Aug-21 00:33N 43°24' E 004°59'0 0.0
2016-Aug-20 23:33N 43°24' E 004°59'0 0.0
2016-Aug-20 22:33N 43°24' E 004°59'0 0.0
2016-Aug-20 21:33N 43°24' E 004°59'0 0.0
2016-Aug-20 20:33N 43°24' E 004°59'0 0.0
2016-Aug-20 19:33N 43°24' E 004°59'0 0.0
2016-Aug-20 18:33N 43°24' E 004°59'0 0.0
2016-Aug-20 17:34N 43°24' E 004°59'0 0.0
2016-Aug-20 16:33N 43°24' E 004°59'0 0.0
2016-Aug-20 15:34N 43°24' E 004°59'0 0.0
2016-Aug-20 14:33N 43°24' E 004°59'15 7.2
2016-Aug-20 12:27N 43°18' E 005°18'14 2.9
2016-Aug-20 07:33N 43°21' E 004°59'3 2.8
2016-Aug-20 06:33N 43°24' E 004°59'0 0.0
2016-Aug-20 05:33N 43°24' E 004°59'0 0.0
2016-Aug-20 04:33N 43°24' E 004°59'0 0.0
2016-Aug-20 03:33N 43°24' E 004°59'0 0.0
2016-Aug-20 02:33N 43°24' E 004°59'0 0.0
2016-Aug-20 01:33N 43°24' E 004°59'0 0.0
2016-Aug-20 00:33N 43°24' E 004°59'0 0.0
2016-Aug-19 23:33N 43°24' E 004°59'0 0.0
2016-Aug-19 22:33N 43°24' E 004°59'2 0.1
2016-Aug-19 11:09N 43°23' E 004°57'2 2.8
2016-Aug-19 10:33N 43°24' E 004°59'0 0.0
2016-Aug-19 09:33N 43°24' E 004°59'0 0.0
2016-Aug-19 08:33N 43°24' E 004°59'0 0.0
2016-Aug-19 07:34N 43°24' E 004°59'0 0.0
2016-Aug-19 06:33N 43°24' E 004°59'0 0.0
2016-Aug-19 05:33N 43°24' E 004°59'0 0.0
2016-Aug-19 04:33N 43°24' E 004°59'0 0.0
2016-Aug-19 03:33N 43°24' E 004°59'0 0.0
2016-Aug-19 02:33N 43°24' E 004°59'0 0.0
2016-Aug-19 01:33N 43°24' E 004°59'0 0.0
2016-Aug-19 00:33N 43°24' E 004°59'0 0.0
2016-Aug-18 23:33N 43°24' E 004°59'0 0.0
2016-Aug-18 22:33N 43°24' E 004°59'0 0.0
2016-Aug-18 21:33N 43°24' E 004°59'  
Track history (hours):
 
Tides and Currents Weather Stations Pressure Air Temp Water Temp Dewpoint Dewpoint Depression Visibility Wind Speed Wind Dir Waves Ship Positions

Cap Aiguades

Last reported at 2016-Aug-28 21:33 UTC. Time now 2016-Aug-28 22:23 UTC.
Position N 43°24' E 004°59'.

Length 89 m; draft 3.4 m.

Type: Ship. MMSI: 228237800.

Date/timePositionNaut miles runAvg speedWind from/ knotsBaromVisibWave heightAir tempDewpointWater temp
2016-Aug-28 21:33N 43°24' E 004°59'0 0.0
2016-Aug-28 20:33N 43°24' E 004°59'0 0.0
2016-Aug-28 19:33N 43°24' E 004°59'0 0.0
2016-Aug-28 18:33N 43°24' E 004°59'0 0.0
2016-Aug-28 17:33N 43°24' E 004°59'0 0.0
2016-Aug-28 16:33N 43°24' E 004°59'0 0.0
2016-Aug-28 15:33N 43°24' E 004°59'0 0.0
2016-Aug-28 14:33N 43°24' E 004°59'0 0.0
2016-Aug-28 13:33N 43°24' E 004°59'0 0.0
2016-Aug-28 12:33N 43°24' E 004°59'0 0.0
2016-Aug-28 11:34N 43°24' E 004°59'0 0.0
2016-Aug-28 05:33N 43°24' E 004°59'0 0.0
2016-Aug-28 04:33N 43°24' E 004°59'0 0.0
2016-Aug-28 03:33N 43°24' E 004°59'0 0.0
2016-Aug-28 02:33N 43°24' E 004°59'0 0.0
2016-Aug-28 01:33N 43°24' E 004°59'0 0.0
2016-Aug-28 00:33N 43°24' E 004°59'0 0.0
2016-Aug-27 23:33N 43°24' E 004°59'0 0.0
2016-Aug-27 22:33N 43°24' E 004°59'0 0.0
2016-Aug-27 21:33N 43°24' E 004°59'0 0.0
2016-Aug-27 20:34N 43°24' E 004°59'0 0.0
2016-Aug-27 19:33N 43°24' E 004°59'0 0.0
2016-Aug-27 18:33N 43°24' E 004°59'0 0.0
2016-Aug-27 17:33N 43°24' E 004°59'0 0.0
2016-Aug-27 16:33N 43°24' E 004°59'0 0.1
2016-Aug-27 15:33N 43°24' E 004°59'0 0.5
2016-Aug-27 14:34N 43°24' E 004°59'0 0.0
2016-Aug-27 13:33N 43°24' E 004°59'0 0.0
2016-Aug-27 12:33N 43°24' E 004°59'0 0.0
2016-Aug-27 11:33N 43°24' E 004°59'0 0.0
2016-Aug-27 10:33N 43°24' E 004°59'1 0.6
2016-Aug-27 09:33N 43°24' E 004°59'0 0.0
2016-Aug-27 08:33N 43°24' E 004°59'0 0.0
2016-Aug-27 07:33N 43°24' E 004°59'0 0.0
2016-Aug-27 06:33N 43°24' E 004°59'0 0.0
2016-Aug-27 04:33N 43°24' E 004°59'0 0.0
2016-Aug-27 03:33N 43°24' E 004°59'0 0.0
2016-Aug-27 02:33N 43°24' E 004°59'0 0.0
2016-Aug-27 01:33N 43°24' E 004°59'0 0.0
2016-Aug-27 00:33N 43°24' E 004°59'0 0.0
2016-Aug-26 23:33N 43°24' E 004°59'0 0.0
2016-Aug-26 22:33N 43°24' E 004°59'0 0.0
2016-Aug-26 21:33N 43°24' E 004°59'0 0.0
2016-Aug-26 20:33N 43°24' E 004°59'0 0.0
2016-Aug-26 19:33N 43°24' E 004°59'0 0.0
2016-Aug-26 18:33N 43°24' E 004°59'0 0.0
2016-Aug-26 17:33N 43°24' E 004°59'0 0.0
2016-Aug-26 16:33N 43°24' E 004°59'0 0.0
2016-Aug-26 15:33N 43°24' E 004°59'0 0.0
2016-Aug-26 14:33N 43°24' E 004°59'2 1.8
2016-Aug-26 13:33N 43°23' E 004°57'0 0.0
2016-Aug-26 03:11N 43°23' E 004°57'2 2.7
2016-Aug-26 02:33N 43°24' E 004°59'0 0.0
2016-Aug-26 01:33N 43°24' E 004°59'0 0.0
2016-Aug-26 00:33N 43°24' E 004°59'0 0.0
2016-Aug-25 23:34N 43°24' E 004°59'0 0.0
2016-Aug-25 22:33N 43°24' E 004°59'0 0.0
2016-Aug-25 21:33N 43°24' E 004°59'0 0.0
2016-Aug-25 20:34N 43°24' E 004°59'0 0.0
2016-Aug-25 19:33N 43°24' E 004°59'0 0.0
2016-Aug-25 18:33N 43°24' E 004°59'0 0.0
2016-Aug-25 17:33N 43°24' E 004°59'0 0.0
2016-Aug-25 16:33N 43°24' E 004°59'0 0.0
2016-Aug-25 15:33N 43°24' E 004°59'0 0.0
2016-Aug-25 14:33N 43°24' E 004°59'0 0.2
2016-Aug-25 13:34N 43°24' E 004°59'6 4.3
2016-Aug-25 12:06N 43°25' E 004°51'0 0.3
2016-Aug-25 11:33N 43°25' E 004°51'0 0.0
2016-Aug-25 07:21N 43°25' E 004°51'5 1.6
2016-Aug-25 04:25N 43°23' E 004°57'2 2.0
2016-Aug-25 03:33N 43°24' E 004°59'0 0.0
2016-Aug-25 02:33N 43°24' E 004°59'0 0.0
2016-Aug-25 01:33N 43°24' E 004°59'0 0.0
2016-Aug-25 00:33N 43°24' E 004°59'0 0.0
2016-Aug-24 23:34N 43°24' E 004°59'0 0.0
2016-Aug-24 22:33N 43°24' E 004°59'0 0.0
2016-Aug-24 21:33N 43°24' E 004°59'0 0.0
2016-Aug-24 20:33N 43°24' E 004°59'0 0.0
2016-Aug-24 19:33N 43°24' E 004°59'0 0.0
2016-Aug-24 18:34N 43°24' E 004°59'0 0.2
2016-Aug-24 17:33N 43°24' E 004°59'44 7.0
2016-Aug-24 11:11N 43°06' E 005°55'1 0.1
2016-Aug-24 04:33N 43°06' E 005°54'0 0.0
2016-Aug-24 03:34N 43°06' E 005°54'0 0.0
2016-Aug-24 02:34N 43°06' E 005°54'0 0.0
2016-Aug-24 01:34N 43°06' E 005°54'0 0.0
2016-Aug-24 00:33N 43°06' E 005°54'1 0.1
2016-Aug-23 16:25N 43°07' E 005°55'1 0.6
2016-Aug-23 15:33N 43°06' E 005°54'0 0.0
2016-Aug-23 14:33N 43°06' E 005°54'0 0.0
2016-Aug-23 13:33N 43°06' E 005°54'0 0.0
2016-Aug-23 12:33N 43°06' E 005°54'0 0.0
2016-Aug-23 11:34N 43°06' E 005°54'0 0.0
2016-Aug-23 10:34N 43°06' E 005°54'0 0.0
2016-Aug-23 09:33N 43°06' E 005°54'0 0.0
2016-Aug-23 08:33N 43°06' E 005°54'0 0.0
2016-Aug-23 07:34N 43°06' E 005°54'23 3.2
2016-Aug-23 00:30N 43°02' E 005°23'24 1.9
2016-Aug-22 11:22N 43°19' E 005°00'4 5.2
2016-Aug-22 10:34N 43°24' E 004°59'0 0.0
2016-Aug-22 09:33N 43°24' E 004°59'0 0.0
2016-Aug-22 08:33N 43°24' E 004°59'0 0.0
2016-Aug-22 07:33N 43°24' E 004°59'0 0.0
2016-Aug-22 06:33N 43°24' E 004°59'0 0.0
2016-Aug-22 05:33N 43°24' E 004°59'0 0.0
2016-Aug-22 04:34N 43°24' E 004°59'0 0.0
2016-Aug-22 03:33N 43°24' E 004°59'0 0.0
2016-Aug-22 02:33N 43°24' E 004°59'0 0.0
2016-Aug-22 01:33N 43°24' E 004°59'0 0.0
2016-Aug-22 00:33N 43°24' E 004°59'0 0.0
2016-Aug-21 23:33N 43°24' E 004°59'2 2.2
2016-Aug-21 22:33N 43°24' E 004°56'1 0.1
2016-Aug-21 17:06N 43°24' E 004°55'3 5.3
2016-Aug-21 16:33N 43°24' E 004°59'0 0.0
2016-Aug-21 15:34N 43°24' E 004°59'0 0.0
2016-Aug-21 14:34N 43°24' E 004°59'0 0.0
2016-Aug-21 13:33N 43°24' E 004°59'0 0.0
2016-Aug-21 12:33N 43°24' E 004°59'0 0.0
2016-Aug-21 11:34N 43°24' E 004°59'0 0.0
2016-Aug-21 10:33N 43°24' E 004°59'0 0.0
2016-Aug-21 09:34N 43°24' E 004°59'0 0.0
2016-Aug-21 08:34N 43°24' E 004°59'0 0.0
2016-Aug-21 07:33N 43°24' E 004°59'0 0.0
2016-Aug-21 06:33N 43°24' E 004°59'0 0.0
2016-Aug-21 05:34N 43°24' E 004°59'1 0.5
2016-Aug-21 04:33N 43°24' E 004°59'0 0.0
2016-Aug-21 03:33N 43°24' E 004°59'0 0.0
2016-Aug-21 02:33N 43°24' E 004°59'0 0.0
2016-Aug-21 01:33N 43°24' E 004°59'0 0.0
2016-Aug-21 00:33N 43°24' E 004°59'0 0.0
2016-Aug-20 23:33N 43°24' E 004°59'0 0.0
2016-Aug-20 22:33N 43°24' E 004°59'0 0.0
2016-Aug-20 21:33N 43°24' E 004°59'0 0.0
2016-Aug-20 20:33N 43°24' E 004°59'0 0.0
2016-Aug-20 19:33N 43°24' E 004°59'0 0.0
2016-Aug-20 18:33N 43°24' E 004°59'0 0.0
2016-Aug-20 17:34N 43°24' E 004°59'0 0.0
2016-Aug-20 16:33N 43°24' E 004°59'0 0.0
2016-Aug-20 15:34N 43°24' E 004°59'0 0.0
2016-Aug-20 14:33N 43°24' E 004°59'15 7.2
2016-Aug-20 12:27N 43°18' E 005°18'14 2.9
2016-Aug-20 07:33N 43°21' E 004°59'3 2.8
2016-Aug-20 06:33N 43°24' E 004°59'0 0.0
2016-Aug-20 05:33N 43°24' E 004°59'0 0.0
2016-Aug-20 04:33N 43°24' E 004°59'0 0.0
2016-Aug-20 03:33N 43°24' E 004°59'0 0.0
2016-Aug-20 02:33N 43°24' E 004°59'0 0.0
2016-Aug-20 01:33N 43°24' E 004°59'0 0.0
2016-Aug-20 00:33N 43°24' E 004°59'0 0.0
2016-Aug-19 23:33N 43°24' E 004°59'0 0.0
2016-Aug-19 22:33N 43°24' E 004°59'2 0.1
2016-Aug-19 11:09N 43°23' E 004°57'2 2.8
2016-Aug-19 10:33N 43°24' E 004°59'0 0.0
2016-Aug-19 09:33N 43°24' E 004°59'0 0.0
2016-Aug-19 08:33N 43°24' E 004°59'0 0.0
2016-Aug-19 07:34N 43°24' E 004°59'0 0.0
2016-Aug-19 06:33N 43°24' E 004°59'0 0.0
2016-Aug-19 05:33N 43°24' E 004°59'0 0.0
2016-Aug-19 04:33N 43°24' E 004°59'0 0.0
2016-Aug-19 03:33N 43°24' E 004°59'0 0.0
2016-Aug-19 02:33N 43°24' E 004°59'0 0.0
2016-Aug-19 01:33N 43°24' E 004°59'0 0.0
2016-Aug-19 00:33N 43°24' E 004°59'0 0.0
2016-Aug-18 23:33N 43°24' E 004°59'0 0.0
2016-Aug-18 22:33N 43°24' E 004°59'0 0.0
2016-Aug-18 21:33N 43°24' E 004°59'  

Dump ship's entire track history